Fowlkes, Tennessee
Current Conditions -  °F | °C
As of 3:15 PM on Sunday 23 Nov 2014 (Local Time) from KDYR Reporting Station
Overcast Overcast  
Wind Chill: 57°   Ceiling: 3200
Heat Index: 57°   Visibility: 5mi
Dew Point: 46°   Wind: 7mph
Humidity: 67%   Direction: 120°ESE
Pressure: 29.35"   Gusts: NA
Location:  35.97°N, 89.39°W
Report Text: KDYR 232115Z 12006KT 5SM BKN032 BKN040 OVC047 14/08 A2935 RMK AO1
Loading
Personal Weather Stations






























Interactive Weather Map New forecast layout! Learn more

10-Day Weather Forecast

Advertisements
Track Severe Weather on mobile